sensor_id;sensor_type;location;lat;lon;timestamp;P1;durP1;ratioP1;P2;durP2;ratioP2
50689;SDS011;71367;48.298;11.238;2023-12-20T00:01:49;7.60;;;3.10;;
50689;SDS011;71367;48.298;11.238;2023-12-20T00:16:55;6.15;;;3.35;;
50689;SDS011;71367;48.298;11.238;2023-12-20T00:32:00;4.85;;;3.05;;
50689;SDS011;71367;48.298;11.238;2023-12-20T00:47:04;7.63;;;3.20;;
50689;SDS011;71367;48.298;11.238;2023-12-20T01:02:08;4.82;;;2.63;;
50689;SDS011;71367;48.298;11.238;2023-12-20T01:17:17;6.47;;;2.60;;
50689;SDS011;71367;48.298;11.238;2023-12-20T01:32:23;5.63;;;3.38;;
50689;SDS011;71367;48.298;11.238;2023-12-20T01:47:30;6.63;;;2.75;;
50689;SDS011;71367;48.298;11.238;2023-12-20T02:02:34;6.30;;;3.05;;
50689;SDS011;71367;48.298;11.238;2023-12-20T02:17:40;4.78;;;2.42;;
50689;SDS011;71367;48.298;11.238;2023-12-20T02:32:45;3.67;;;2.00;;
50689;SDS011;71367;48.298;11.238;2023-12-20T02:47:50;4.55;;;2.30;;
50689;SDS011;71367;48.298;11.238;2023-12-20T03:02:56;2.90;;;1.90;;
50689;SDS011;71367;48.298;11.238;2023-12-20T03:18:06;4.10;;;2.00;;
50689;SDS011;71367;48.298;11.238;2023-12-20T03:33:10;4.18;;;2.42;;
50689;SDS011;71367;48.298;11.238;2023-12-20T03:48:14;3.83;;;2.15;;
50689;SDS011;71367;48.298;11.238;2023-12-20T04:03:17;5.20;;;2.78;;
50689;SDS011;71367;48.298;11.238;2023-12-20T04:18:21;4.60;;;2.55;;
50689;SDS011;71367;48.298;11.238;2023-12-20T04:33:24;6.80;;;3.13;;
50689;SDS011;71367;48.298;11.238;2023-12-20T04:48:28;6.70;;;3.63;;
50689;SDS011;71367;48.298;11.238;2023-12-20T05:03:32;7.32;;;4.10;;
50689;SDS011;71367;48.298;11.238;2023-12-20T05:18:35;8.73;;;4.55;;
50689;SDS011;71367;48.298;11.238;2023-12-20T05:33:39;9.98;;;5.00;;
50689;SDS011;71367;48.298;11.238;2023-12-20T05:48:43;8.45;;;5.03;;
50689;SDS011;71367;48.298;11.238;2023-12-20T06:03:46;7.32;;;4.05;;
50689;SDS011;71367;48.298;11.238;2023-12-20T06:18:50;8.00;;;4.20;;
50689;SDS011;71367;48.298;11.238;2023-12-20T06:33:54;9.50;;;4.63;;
50689;SDS011;71367;48.298;11.238;2023-12-20T06:48:59;7.72;;;4.40;;
50689;SDS011;71367;48.298;11.238;2023-12-20T07:04:03;8.27;;;4.90;;
50689;SDS011;71367;48.298;11.238;2023-12-20T07:19:06;7.57;;;4.00;;
50689;SDS011;71367;48.298;11.238;2023-12-20T07:34:10;8.15;;;4.72;;
50689;SDS011;71367;48.298;11.238;2023-12-20T07:49:14;8.80;;;4.50;;
50689;SDS011;71367;48.298;11.238;2023-12-20T08:04:18;7.65;;;4.05;;
50689;SDS011;71367;48.298;11.238;2023-12-20T08:19:24;5.97;;;3.58;;
50689;SDS011;71367;48.298;11.238;2023-12-20T08:34:28;6.35;;;3.70;;
50689;SDS011;71367;48.298;11.238;2023-12-20T08:49:31;12.52;;;4.68;;
50689;SDS011;71367;48.298;11.238;2023-12-20T09:04:35;6.38;;;3.45;;
50689;SDS011;71367;48.298;11.238;2023-12-20T09:19:39;5.95;;;3.30;;
50689;SDS011;71367;48.298;11.238;2023-12-20T09:34:43;6.97;;;3.70;;
50689;SDS011;71367;48.298;11.238;2023-12-20T09:49:46;5.05;;;2.90;;
50689;SDS011;71367;48.298;11.238;2023-12-20T10:04:50;10.43;;;4.03;;
50689;SDS011;71367;48.298;11.238;2023-12-20T10:19:54;8.68;;;5.20;;
50689;SDS011;71367;48.298;11.238;2023-12-20T10:34:57;10.07;;;4.72;;
50689;SDS011;71367;48.298;11.238;2023-12-20T10:50:02;6.32;;;4.10;;
50689;SDS011;71367;48.298;11.238;2023-12-20T11:05:13;5.35;;;3.15;;
50689;SDS011;71367;48.298;11.238;2023-12-20T11:20:34;4.18;;;2.58;;
50689;SDS011;71367;48.298;11.238;2023-12-20T11:35:39;4.95;;;3.00;;
50689;SDS011;71367;48.298;11.238;2023-12-20T11:50:43;5.70;;;3.05;;
50689;SDS011;71367;48.298;11.238;2023-12-20T12:05:48;5.25;;;2.28;;
50689;SDS011;71367;48.298;11.238;2023-12-20T12:21:00;9.55;;;4.75;;
50689;SDS011;71367;48.298;11.238;2023-12-20T12:36:05;4.47;;;2.40;;
50689;SDS011;71367;48.298;11.238;2023-12-20T12:51:10;6.75;;;2.72;;
50689;SDS011;71367;48.298;11.238;2023-12-20T13:06:15;7.28;;;3.38;;
50689;SDS011;71367;48.298;11.238;2023-12-20T13:21:19;11.73;;;3.95;;
50689;SDS011;71367;48.298;11.238;2023-12-20T13:36:22;10.98;;;2.75;;
50689;SDS011;71367;48.298;11.238;2023-12-20T13:51:26;6.20;;;2.35;;
50689;SDS011;71367;48.298;11.238;2023-12-20T14:06:31;8.18;;;3.00;;
50689;SDS011;71367;48.298;11.238;2023-12-20T14:21:35;14.90;;;5.28;;
50689;SDS011;71367;48.298;11.238;2023-12-20T14:36:38;4.75;;;2.67;;
50689;SDS011;71367;48.298;11.238;2023-12-20T14:51:44;3.85;;;2.55;;
50689;SDS011;71367;48.298;11.238;2023-12-20T15:06:49;8.18;;;3.42;;
50689;SDS011;71367;48.298;11.238;2023-12-20T15:21:54;5.00;;;2.25;;
50689;SDS011;71367;48.298;11.238;2023-12-20T15:36:57;7.35;;;2.83;;
50689;SDS011;71367;48.298;11.238;2023-12-20T15:52:02;11.55;;;3.80;;
50689;SDS011;71367;48.298;11.238;2023-12-20T16:07:05;6.20;;;3.33;;
50689;SDS011;71367;48.298;11.238;2023-12-20T16:22:09;8.63;;;3.13;;
50689;SDS011;71367;48.298;11.238;2023-12-20T16:37:13;4.95;;;2.63;;
50689;SDS011;71367;48.298;11.238;2023-12-20T16:52:16;6.43;;;2.10;;
50689;SDS011;71367;48.298;11.238;2023-12-20T17:07:21;4.38;;;1.75;;
50689;SDS011;71367;48.298;11.238;2023-12-20T17:22:24;7.30;;;2.33;;
50689;SDS011;71367;48.298;11.238;2023-12-20T17:37:28;4.63;;;2.00;;
50689;SDS011;71367;48.298;11.238;2023-12-20T17:52:33;5.28;;;1.65;;
50689;SDS011;71367;48.298;11.238;2023-12-20T18:07:38;4.45;;;1.83;;
50689;SDS011;71367;48.298;11.238;2023-12-20T18:22:44;3.40;;;1.60;;
50689;SDS011;71367;48.298;11.238;2023-12-20T18:37:49;4.63;;;1.77;;
50689;SDS011;71367;48.298;11.238;2023-12-20T18:52:52;8.30;;;2.20;;
50689;SDS011;71367;48.298;11.238;2023-12-20T19:07:56;8.48;;;2.78;;
50689;SDS011;71367;48.298;11.238;2023-12-20T19:23:00;3.25;;;1.50;;
50689;SDS011;71367;48.298;11.238;2023-12-20T19:38:05;7.03;;;2.53;;
50689;SDS011;71367;48.298;11.238;2023-12-20T19:53:10;4.82;;;2.63;;
50689;SDS011;71367;48.298;11.238;2023-12-20T20:08:15;5.20;;;2.88;;
50689;SDS011;71367;48.298;11.238;2023-12-20T20:23:21;11.27;;;3.40;;
50689;SDS011;71367;48.298;11.238;2023-12-20T20:38:25;6.38;;;2.60;;
50689;SDS011;71367;48.298;11.238;2023-12-20T20:53:30;4.78;;;2.10;;
50689;SDS011;71367;48.298;11.238;2023-12-20T21:08:34;5.05;;;1.90;;
50689;SDS011;71367;48.298;11.238;2023-12-20T21:23:38;2.97;;;1.25;;
50689;SDS011;71367;48.298;11.238;2023-12-20T21:38:42;4.82;;;1.85;;
50689;SDS011;71367;48.298;11.238;2023-12-20T21:53:46;5.78;;;1.60;;
50689;SDS011;71367;48.298;11.238;2023-12-20T22:08:50;5.18;;;1.90;;
50689;SDS011;71367;48.298;11.238;2023-12-20T22:23:56;3.85;;;1.65;;
50689;SDS011;71367;48.298;11.238;2023-12-20T22:39:01;3.53;;;1.38;;
50689;SDS011;71367;48.298;11.238;2023-12-20T22:54:08;3.60;;;1.48;;
50689;SDS011;71367;48.298;11.238;2023-12-20T23:09:11;3.90;;;1.38;;
50689;SDS011;71367;48.298;11.238;2023-12-20T23:24:15;4.75;;;1.40;;
50689;SDS011;71367;48.298;11.238;2023-12-20T23:39:21;2.58;;;1.10;;
50689;SDS011;71367;48.298;11.238;2023-12-20T23:54:26;3.58;;;1.50;;
